Time;durP1;ratioP1;P1;durP2;ratioP2;P2;SDS_P1;SDS_P2;PMS_P1;PMS_P2;Temp;Humidity;BMP_temperature;BMP_pressure;BME280_temperature;BME280_humidity;BME280_pressure;Samples;Min_cycle;Max_cycle;Signal;HPM_P1;HPM_P2
2022/08/03 00:01:16;;;;;;;11.38;3.13;;;;;;;21.37;74.52;101319.78;4985677;28;20042;-81
2022/08/03 00:03:41;;;;;;;9.05;3.60;;;;;;;21.31;74.67;101320.28;4991297;28;20033;-81
2022/08/03 00:06:06;;;;;;;5.18;3.20;;;;;;;21.30;74.82;101321.28;4995625;28;20026;-81
2022/08/03 00:08:32;;;;;;;8.05;3.08;;;;;;;21.30;75.48;101315.03;4988087;28;20034;-81
2022/08/03 00:10:57;;;;;;;10.73;3.63;;;;;;;21.26;75.00;101317.13;4981392;28;20082;-81
2022/08/03 00:13:24;;;;;;;8.15;3.67;;;;;;;21.21;74.81;101316.69;4987854;28;20030;-81
2022/08/03 00:15:49;;;;;;;5.72;3.40;;;;;;;21.18;75.31;101321.53;4991198;28;20053;-82
2022/08/03 00:18:15;;;;;;;5.13;2.80;;;;;;;21.13;75.68;101321.94;4995358;28;20470;-81
2022/08/03 00:20:40;;;;;;;9.63;3.13;;;;;;;21.16;75.70;101320.81;4990849;28;20041;-81
2022/08/03 00:23:06;;;;;;;6.63;3.15;;;;;;;21.07;76.69;101323.34;4997457;28;20050;-81
2022/08/03 00:25:32;;;;;;;9.45;3.33;;;;;;;21.07;75.92;101325.19;4991475;28;20037;-81
2022/08/03 00:27:58;;;;;;;7.68;3.40;;;;;;;21.03;76.52;101321.88;4984383;28;20030;-81
2022/08/03 00:30:23;;;;;;;8.48;3.45;;;;;;;20.96;76.71;101320.69;4981818;28;20929;-81
2022/08/03 00:32:48;;;;;;;10.48;3.75;;;;;;;20.93;76.93;101325.50;4991173;28;20058;-80
2022/08/03 00:35:14;;;;;;;8.35;3.83;;;;;;;20.86;77.03;101317.09;4990275;28;20034;-80
2022/08/03 00:37:39;;;;;;;8.10;3.85;;;;;;;20.81;77.30;101317.47;5000316;28;20094;-80
2022/08/03 00:40:05;;;;;;;7.85;3.78;;;;;;;20.75;77.07;101322.56;5013689;28;20018;-80
2022/08/03 00:42:30;;;;;;;7.85;3.63;;;;;;;20.73;77.55;101328.09;5021716;28;20042;-80
2022/08/03 00:44:56;;;;;;;6.70;3.63;;;;;;;20.71;77.47;101318.41;5015008;28;20049;-81
2022/08/03 00:47:21;;;;;;;9.45;3.88;;;;;;;20.73;78.12;101324.53;5012993;28;20034;-80
2022/08/03 00:49:46;;;;;;;8.88;4.68;;;;;;;20.67;78.07;101316.94;5017269;28;20058;-80
2022/08/03 00:52:14;;;;;;;6.50;4.18;;;;;;;20.62;78.40;101320.91;5002269;28;20044;-81
2022/08/03 00:54:39;;;;;;;8.90;3.85;;;;;;;20.60;77.96;101319.31;4994368;28;20415;-80
2022/08/03 00:57:05;;;;;;;7.22;3.75;;;;;;;20.59;78.21;101323.00;4995167;28;20360;-80
2022/08/03 00:59:31;;;;;;;10.52;4.25;;;;;;;20.57;78.06;101316.91;4987111;28;20029;-81
2022/08/03 01:01:56;;;;;;;10.13;4.28;;;;;;;20.51;78.24;101312.00;4977333;28;20042;-81
2022/08/03 01:04:22;;;;;;;10.07;4.57;;;;;;;20.51;78.51;101315.56;4990166;28;20037;-80
2022/08/03 01:06:56;;;;;;;7.25;4.00;;;;;;;20.53;77.84;101307.31;4994436;28;20036;-81
2022/08/03 01:09:32;;;;;;;10.10;4.00;;;;;;;20.53;78.60;101313.59;4980141;28;20068;-81
2022/08/03 01:12:06;;;;;;;12.43;3.92;;;;;;;20.53;78.70;101305.47;4987120;28;20042;-80
2022/08/03 01:14:41;;;;;;;8.82;3.95;;;;;;;20.52;78.58;101316.41;4980599;28;20031;-80
2022/08/03 01:17:18;;;;;;;8.38;3.83;;;;;;;20.49;78.16;101305.88;4988050;28;20065;-80
2022/08/03 01:20:02;;;;;;;7.05;3.75;;;;;;;20.51;78.04;101310.16;4977080;28;20041;-80
2022/08/03 01:22:48;;;;;;;10.05;4.38;;;;;;;20.44;79.55;101298.13;4990063;28;20040;-80
2022/08/03 01:25:32;;;;;;;10.75;3.90;;;;;;;20.42;79.01;101297.38;4979336;28;20126;-79
2022/08/03 01:28:16;;;;;;;9.73;4.43;;;;;;;20.37;78.96;101305.88;4986408;28;20033;-80
2022/08/03 01:30:44;;;;;;;9.55;4.13;;;;;;;20.36;79.39;101295.22;4999832;28;20038;-80
2022/08/03 01:33:23;;;;;;;10.02;4.00;;;;;;;20.36;78.86;101300.63;4984080;28;20102;-80
2022/08/03 01:35:59;;;;;;;10.30;4.30;;;;;;;20.29;79.44;101292.16;4970406;28;20519;-81
2022/08/03 01:38:28;;;;;;;10.82;4.50;;;;;;;20.28;79.51;101306.66;4982497;28;20034;-81
2022/08/03 01:40:55;;;;;;;10.10;4.28;;;;;;;20.26;80.23;101299.66;4972604;28;20152;-80
2022/08/03 01:43:26;;;;;;;10.85;4.18;;;;;;;20.26;79.92;101300.53;4984472;28;20031;-81
2022/08/03 01:45:54;;;;;;;12.15;4.45;;;;;;;20.25;80.16;101289.84;4984675;28;20174;-82
2022/08/03 01:48:20;;;;;;;10.48;4.30;;;;;;;20.18;80.29;101297.59;4973306;28;20089;-81
2022/08/03 01:50:47;;;;;;;11.63;3.97;;;;;;;20.17;80.43;101295.91;4987772;28;20026;-82
2022/08/03 01:53:15;;;;;;;10.15;4.32;;;;;;;20.13;80.65;101287.19;4988994;28;20041;-81
2022/08/03 01:55:42;;;;;;;10.43;4.32;;;;;;;20.15;80.47;101289.78;4987299;28;20068;-82
2022/08/03 01:58:07;;;;;;;9.32;4.47;;;;;;;20.10;80.55;101289.28;4984640;28;20069;-81
2022/08/03 02:00:37;;;;;;;10.10;4.93;;;;;;;20.11;80.38;101289.19;4985616;28;20386;-81
2022/08/03 02:03:07;;;;;;;11.73;4.30;;;;;;;20.11;80.49;101291.88;4985532;28;20034;-81
2022/08/03 02:05:34;;;;;;;7.53;4.47;;;;;;;20.08;80.53;101288.56;4990427;28;20026;-81
2022/08/03 02:08:02;;;;;;;8.68;4.45;;;;;;;20.06;80.64;101283.28;4986448;28;20483;-82
2022/08/03 02:10:29;;;;;;;8.98;4.50;;;;;;;19.95;81.23;101277.94;4986968;28;20028;-81
2022/08/03 02:12:58;;;;;;;9.55;4.63;;;;;;;19.98;81.15;101285.78;4987319;28;20080;-81
2022/08/03 02:15:24;;;;;;;9.40;4.28;;;;;;;19.97;81.21;101283.19;4980842;28;20033;-81
2022/08/03 02:17:51;;;;;;;10.13;4.53;;;;;;;19.94;81.18;101281.63;4970973;28;20030;-81
2022/08/03 02:20:18;;;;;;;11.18;4.53;;;;;;;19.92;81.28;101288.13;4983318;28;20037;-81
2022/08/03 02:22:44;;;;;;;7.68;4.45;;;;;;;19.89;81.53;101286.53;4988820;28;20064;-81
2022/08/03 02:25:12;;;;;;;12.60;4.13;;;;;;;19.83;81.68;101287.91;4989752;28;20483;-81
2022/08/03 02:27:43;;;;;;;10.02;4.20;;;;;;;19.86;81.65;101292.22;4973734;28;20074;-81
2022/08/03 02:30:11;;;;;;;8.65;3.95;;;;;;;19.80;81.79;101290.84;4975696;28;20058;-81
2022/08/03 02:32:39;;;;;;;11.20;5.40;;;;;;;19.79;81.62;101291.00;4974682;28;20064;-81
2022/08/03 02:35:09;;;;;;;9.43;4.75;;;;;;;19.78;81.83;101292.00;4984414;28;20023;-81
2022/08/03 02:37:40;;;;;;;13.43;4.80;;;;;;;19.72;81.66;101282.53;4987147;28;20416;-81
2022/08/03 02:40:09;;;;;;;7.93;4.78;;;;;;;19.69;81.90;101284.63;4982955;28;20400;-81
2022/08/03 02:42:35;;;;;;;9.23;4.57;;;;;;;19.67;81.92;101278.50;4983036;28;20018;-81
2022/08/03 02:45:04;;;;;;;12.13;4.85;;;;;;;19.70;81.78;101281.81;4970672;28;20031;-81
2022/08/03 02:47:30;;;;;;;13.10;4.55;;;;;;;19.67;81.80;101279.34;4977345;28;20034;-81
2022/08/03 02:49:57;;;;;;;8.05;4.40;;;;;;;19.66;81.62;101280.34;4983732;28;20040;-81
2022/08/03 02:52:25;;;;;;;8.13;5.15;;;;;;;19.64;81.65;101276.91;4992455;28;20022;-81
2022/08/03 02:54:53;;;;;;;8.07;4.75;;;;;;;19.58;81.88;101277.38;4989399;28;20039;-81
2022/08/03 02:57:20;;;;;;;6.65;4.95;;;;;;;19.56;82.53;101274.81;4976460;28;20031;-81
2022/08/03 02:59:46;;;;;;;8.43;5.18;;;;;;;19.52;82.60;101270.66;4968077;28;20027;-81
2022/08/03 03:02:14;;;;;;;10.07;5.18;;;;;;;19.48;82.52;101265.59;4978514;28;20066;-81
2022/08/03 03:04:39;;;;;;;10.80;5.03;;;;;;;19.48;82.36;101271.88;4976289;28;20038;-81
2022/08/03 03:07:05;;;;;;;10.35;5.38;;;;;;;19.46;82.38;101273.84;4998381;28;20035;-81
2022/08/03 03:09:33;;;;;;;11.55;5.07;;;;;;;19.50;82.08;101271.75;4979383;28;20030;-81
2022/08/03 03:11:59;;;;;;;11.35;5.15;;;;;;;19.47;82.44;101272.00;4978004;28;20043;-81
2022/08/03 03:14:25;;;;;;;8.57;5.50;;;;;;;19.47;82.20;101272.84;4981239;28;20033;-81
2022/08/03 03:16:51;;;;;;;8.15;5.53;;;;;;;19.39;82.64;101273.47;4977458;28;20058;-81
2022/08/03 03:19:18;;;;;;;11.75;4.75;;;;;;;19.39;82.36;101272.59;4979225;28;20566;-81
2022/08/03 03:21:45;;;;;;;10.88;5.25;;;;;;;19.36;82.17;101264.78;4982386;28;20089;-81
2022/08/03 03:24:11;;;;;;;7.28;4.55;;;;;;;19.34;82.42;101269.44;4994101;28;20054;-81
2022/08/03 03:26:37;;;;;;;10.43;4.85;;;;;;;19.30;82.75;101263.41;4986734;28;20608;-80
2022/08/03 03:29:03;;;;;;;9.48;4.55;;;;;;;19.28;82.81;101270.81;4986661;28;20027;-81
2022/08/03 03:31:28;;;;;;;8.77;4.50;;;;;;;19.28;82.88;101270.81;4976872;28;20412;-81
2022/08/03 03:33:56;;;;;;;8.48;5.32;;;;;;;19.21;83.15;101269.56;4982707;28;20070;-81
2022/08/03 03:36:22;;;;;;;8.98;4.63;;;;;;;19.24;82.82;101274.72;4991367;28;20030;-81
2022/08/03 03:38:47;;;;;;;16.70;4.90;;;;;;;19.22;82.20;101265.88;4983865;28;20070;-81
2022/08/03 03:41:13;;;;;;;10.38;4.43;;;;;;;19.20;82.64;101270.56;4977827;28;20100;-81
2022/08/03 03:43:38;;;;;;;9.57;4.78;;;;;;;19.11;82.43;101257.81;4996624;28;20026;-80
2022/08/03 03:46:04;;;;;;;9.05;4.10;;;;;;;19.17;82.94;101268.09;4977977;28;20050;-80
2022/08/03 03:48:29;;;;;;;7.68;4.10;;;;;;;19.11;82.97;101258.66;4979357;28;20014;-81
2022/08/03 03:50:56;;;;;;;8.50;4.30;;;;;;;19.05;82.88;101258.28;4973336;28;20106;-81
2022/08/03 03:53:22;;;;;;;7.20;4.03;;;;;;;19.07;83.12;101259.03;4984753;28;20038;-81
2022/08/03 03:55:47;;;;;;;9.00;4.18;;;;;;;19.07;82.65;101264.44;4976003;28;20045;-81
2022/08/03 03:58:12;;;;;;;7.93;4.32;;;;;;;19.05;83.07;101269.94;4992333;28;20033;-81
2022/08/03 04:00:38;;;;;;;10.68;4.05;;;;;;;19.03;82.81;101265.66;4988745;28;20038;-81
2022/08/03 04:03:03;;;;;;;8.32;4.18;;;;;;;19.01;83.03;101273.00;5000258;28;20038;-80
2022/08/03 04:11:30;;;;;;;7.95;4.20;;;;;;;18.97;82.60;101266.97;4985633;28;19925;-81
2022/08/03 04:14:02;;;;;;;9.48;4.20;;;;;;;18.89;82.95;101264.03;4986518;28;20030;-81
2022/08/03 04:16:31;;;;;;;6.60;4.38;;;;;;;18.86;83.29;101273.25;4990740;28;20101;-80
2022/08/03 04:19:03;;;;;;;8.50;4.40;;;;;;;18.77;83.37;101256.91;4985078;28;20460;-80
2022/08/03 04:21:31;;;;;;;7.30;3.97;;;;;;;18.85;83.33;101268.84;4996582;28;20037;-80
2022/08/03 04:24:00;;;;;;;9.18;4.95;;;;;;;18.83;83.90;101269.94;4988095;28;20117;-80
2022/08/03 04:26:30;;;;;;;7.00;4.57;;;;;;;18.75;84.28;101262.44;4987409;28;20034;-80
2022/08/03 04:28:57;;;;;;;8.70;4.82;;;;;;;18.75;84.08;101270.53;4980641;28;20029;-81
2022/08/03 04:31:24;;;;;;;8.10;4.85;;;;;;;18.76;83.89;101272.22;4992717;28;20030;-80
2022/08/03 04:33:52;;;;;;;9.80;4.43;;;;;;;18.78;84.10;101269.44;5003142;28;20422;-81
2022/08/03 04:36:22;;;;;;;8.63;4.53;;;;;;;18.77;83.82;101271.28;4996025;28;20030;-82
2022/08/03 04:39:05;;;;;;;9.10;5.35;;;;;;;18.79;83.28;101276.53;4994111;28;20034;-82
2022/08/03 04:41:31;;;;;;;8.77;6.15;;;;;;;18.77;84.01;101276.66;5000357;28;20010;-81
2022/08/03 04:43:58;;;;;;;8.38;5.38;;;;;;;18.81;83.80;101279.97;5013636;28;20069;-81
2022/08/03 04:46:43;;;;;;;9.93;5.43;;;;;;;18.73;83.00;101263.53;5016126;28;20018;-81
2022/08/03 04:49:09;;;;;;;9.02;5.05;;;;;;;18.77;83.37;101265.00;5013221;28;20057;-81
2022/08/03 04:51:37;;;;;;;8.63;5.15;;;;;;;18.84;83.44;101277.88;5000685;28;20038;-81
2022/08/03 04:54:03;;;;;;;8.13;4.85;;;;;;;18.79;83.99;101266.59;5011860;28;20044;-81
2022/08/03 04:56:28;;;;;;;8.27;4.88;;;;;;;18.85;83.24;101285.03;4993958;28;20409;-81
2022/08/03 04:58:54;;;;;;;11.70;4.95;;;;;;;18.89;84.08;101280.22;4989807;28;20042;-81
2022/08/03 05:01:19;;;;;;;11.45;4.95;;;;;;;18.91;83.43;101284.53;4989808;28;20073;-81
2022/08/03 05:03:45;;;;;;;7.80;5.05;;;;;;;18.95;83.46;101289.69;4986646;28;20546;-81
2022/08/03 05:06:11;;;;;;;11.05;5.20;;;;;;;18.92;83.32;101286.22;4985632;28;20037;-81
2022/08/03 05:08:37;;;;;;;9.20;5.60;;;;;;;18.91;82.60;101284.53;4984131;28;20015;-81
2022/08/03 05:11:02;;;;;;;11.23;5.55;;;;;;;19.01;82.83;101294.56;4980242;28;20520;-81
2022/08/03 05:13:27;;;;;;;9.50;5.72;;;;;;;19.02;83.22;101291.78;4974227;28;20113;-80
2022/08/03 05:15:53;;;;;;;8.93;5.07;;;;;;;19.09;82.47;101298.38;4977407;28;20495;-81
2022/08/03 05:18:18;;;;;;;7.70;4.90;;;;;;;19.11;82.04;101300.97;4983329;28;20034;-81
2022/08/03 05:20:43;;;;;;;9.75;5.78;;;;;;;19.19;81.81;101306.63;4988096;28;20117;-82
2022/08/03 05:23:09;;;;;;;10.55;5.20;;;;;;;19.20;82.26;101305.63;4983692;28;20528;-81
2022/08/03 05:25:34;;;;;;;8.38;5.25;;;;;;;19.29;81.77;101304.91;4990697;28;20064;-82
2022/08/03 05:28:00;;;;;;;7.47;4.43;;;;;;;19.36;81.58;101305.28;4981986;28;20022;-81
2022/08/03 05:30:25;;;;;;;10.23;4.47;;;;;;;19.45;81.08;101309.91;4983326;28;20391;-82
2022/08/03 05:32:52;;;;;;;8.13;4.30;;;;;;;19.50;80.51;101302.31;4988865;28;20275;-80
2022/08/03 05:35:17;;;;;;;7.07;3.58;;;;;;;19.57;79.41;101313.47;4984586;28;20034;-81
2022/08/03 05:37:42;;;;;;;9.32;4.90;;;;;;;19.64;79.68;101304.75;4991279;28;20189;-81
2022/08/03 05:40:08;;;;;;;7.85;3.83;;;;;;;19.76;78.29;101311.00;4981228;28;20046;-81
2022/08/03 05:42:36;;;;;;;9.73;4.30;;;;;;;19.88;78.70;101309.13;4981361;28;20033;-81
2022/08/03 05:45:14;;;;;;;8.25;4.30;;;;;;;19.98;77.64;101311.91;4984833;28;20105;-82
2022/08/03 05:47:43;;;;;;;9.90;3.97;;;;;;;20.15;77.12;101312.25;4975998;28;20114;-81
2022/08/03 05:50:13;;;;;;;7.55;3.58;;;;;;;20.33;76.63;101315.25;4984588;28;20042;-81
2022/08/03 05:52:39;;;;;;;9.23;3.40;;;;;;;20.50;75.30;101316.53;4981720;28;20530;-81
2022/08/03 05:55:08;;;;;;;12.10;4.32;;;;;;;20.61;74.43;101312.94;4977398;28;20506;-82
2022/08/03 05:57:34;;;;;;;9.45;3.15;;;;;;;20.82;73.87;101313.78;4984438;28;20018;-82
2022/08/03 06:00:08;;;;;;;9.80;3.50;;;;;;;20.98;73.96;101312.44;4984002;28;20042;-81
2022/08/03 06:02:33;;;;;;;7.53;3.72;;;;;;;21.22;72.53;101314.84;4977035;28;20153;-81
2022/08/03 06:04:59;;;;;;;4.95;3.00;;;;;;;21.40;71.44;101307.81;4986479;28;20109;-81
2022/08/03 06:07:24;;;;;;;6.25;2.72;;;;;;;21.59;70.58;101317.88;4983921;28;20034;-80
2022/08/03 06:09:50;;;;;;;8.02;2.95;;;;;;;21.81;69.61;101314.94;4987822;28;20052;-80
2022/08/03 06:12:15;;;;;;;4.97;2.50;;;;;;;21.91;69.70;101317.66;4988578;28;20118;-81
2022/08/03 06:14:40;;;;;;;7.00;2.80;;;;;;;21.96;67.84;101309.97;4984055;28;20629;-80
2022/08/03 06:17:05;;;;;;;6.43;2.67;;;;;;;22.19;68.06;101321.44;4984647;28;20039;-79
2022/08/03 06:19:31;;;;;;;7.65;2.92;;;;;;;22.33;66.61;101322.88;4982857;28;20038;-81
2022/08/03 06:21:57;;;;;;;7.72;2.70;;;;;;;22.53;66.75;101312.84;4987713;28;20049;-79
2022/08/03 06:24:22;;;;;;;7.78;2.53;;;;;;;22.66;65.72;101312.56;4990854;28;20030;-80
2022/08/03 06:26:47;;;;;;;11.68;2.58;;;;;;;22.70;64.68;101316.69;4983910;28;20030;-81
2022/08/03 06:29:13;;;;;;;12.82;2.85;;;;;;;22.74;65.27;101316.28;4984487;28;20037;-79
2022/08/03 06:31:38;;;;;;;6.50;2.53;;;;;;;22.91;65.08;101324.69;4970189;28;20473;-80
2022/08/03 06:34:04;;;;;;;7.88;2.42;;;;;;;23.09;63.75;101320.22;4981537;28;20041;-81
2022/08/03 06:36:30;;;;;;;8.60;3.50;;;;;;;23.16;63.21;101313.19;4981851;28;20049;-81
2022/08/03 06:38:57;;;;;;;7.63;3.00;;;;;;;23.24;62.54;101323.28;4985726;28;20388;-82
2022/08/03 06:41:23;;;;;;;5.80;2.30;;;;;;;23.26;62.04;101326.72;4987522;28;20046;-81
2022/08/03 06:43:48;;;;;;;9.63;2.33;;;;;;;23.28;62.82;101328.31;4990725;28;20479;-81
2022/08/03 06:46:13;;;;;;;7.15;2.45;;;;;;;23.31;61.81;101327.13;4980346;28;20101;-81
2022/08/03 06:48:38;;;;;;;8.70;2.10;;;;;;;23.37;61.32;101323.84;4984035;28;20022;-81
2022/08/03 06:51:04;;;;;;;6.90;2.63;;;;;;;23.34;61.04;101329.56;4982354;28;20121;-81
2022/08/03 06:53:29;;;;;;;9.07;2.80;;;;;;;23.22;61.23;101323.44;4978291;28;20052;-88
2022/08/03 06:55:54;;;;;;;8.07;2.70;;;;;;;23.33;61.83;101323.28;4984253;28;20029;-82
2022/08/03 06:58:19;;;;;;;11.10;4.43;;;;;;;23.57;60.79;101324.56;4984331;28;20442;-82
2022/08/03 07:00:45;;;;;;;8.40;2.70;;;;;;;23.82;60.01;101329.31;4989202;28;20569;-81
2022/08/03 07:03:10;;;;;;;7.75;2.22;;;;;;;24.00;60.52;101331.25;4991899;28;20041;-83
2022/08/03 07:05:36;;;;;;;9.63;3.05;;;;;;;24.22;59.16;101325.34;4983147;28;20129;-82
2022/08/03 07:08:02;;;;;;;5.95;2.28;;;;;;;24.31;57.39;101329.84;4987682;28;20678;-83
2022/08/03 07:10:27;;;;;;;5.45;2.20;;;;;;;24.52;59.22;101332.28;4986701;28;20035;-82
2022/08/03 07:12:53;;;;;;;7.45;2.20;;;;;;;24.82;56.73;101333.69;4988920;28;20037;-82
2022/08/03 07:15:18;;;;;;;5.20;2.15;;;;;;;24.99;56.33;101339.25;4986263;28;20061;-82
2022/08/03 07:17:44;;;;;;;6.32;1.90;;;;;;;25.02;56.06;101345.25;4983543;28;20093;-83
2022/08/03 07:20:10;;;;;;;9.43;3.08;;;;;;;25.22;55.75;101340.47;4985537;28;20074;-82
2022/08/03 07:22:35;;;;;;;6.10;1.88;;;;;;;25.42;55.27;101351.16;4980543;28;20337;-81
2022/08/03 07:25:01;;;;;;;6.70;1.85;;;;;;;25.69;53.65;101340.00;4992210;28;20038;-82
2022/08/03 07:27:28;;;;;;;7.28;2.28;;;;;;;25.99;53.77;101346.78;4987021;28;20422;-81
2022/08/03 07:29:54;;;;;;;7.63;2.22;;;;;;;26.25;52.46;101348.53;4988782;28;20027;-81
2022/08/03 07:32:19;;;;;;;6.40;2.00;;;;;;;26.59;50.57;101351.19;4988130;28;20057;-80
2022/08/03 07:34:45;;;;;;;5.15;1.92;;;;;;;26.73;50.95;101352.38;4986794;28;20070;-80
2022/08/03 07:37:10;;;;;;;6.35;1.90;;;;;;;26.96;50.30;101352.50;4985327;28;20096;-81
2022/08/03 07:39:35;;;;;;;8.20;2.10;;;;;;;27.12;49.21;101351.66;4993150;28;20434;-80
2022/08/03 07:42:01;;;;;;;8.25;2.15;;;;;;;27.26;49.82;101350.97;4991028;28;20049;-80
2022/08/03 07:44:26;;;;;;;5.50;1.95;;;;;;;27.47;47.99;101345.75;4990022;28;20045;-80
2022/08/03 07:46:51;;;;;;;6.65;1.85;;;;;;;27.89;48.48;101349.22;4989979;28;20058;-80
2022/08/03 07:49:17;;;;;;;5.18;1.90;;;;;;;28.41;47.59;101345.81;4980685;28;20034;-81
2022/08/03 07:51:43;;;;;;;7.55;2.40;;;;;;;28.71;45.39;101350.34;4986951;28;20132;-80
2022/08/03 07:54:09;;;;;;;6.07;1.70;;;;;;;28.87;44.26;101345.75;4983174;28;20081;-80
2022/08/03 07:56:35;;;;;;;5.93;1.92;;;;;;;28.75;44.15;101343.47;4986976;28;20037;-80
2022/08/03 07:59:01;;;;;;;8.32;1.80;;;;;;;28.74;45.17;101344.50;4980751;28;20114;-81
2022/08/03 08:01:27;;;;;;;10.77;2.05;;;;;;;29.11;43.33;101340.06;4985059;28;20346;-80
2022/08/03 08:03:53;;;;;;;8.82;1.88;;;;;;;29.36;42.88;101343.38;4976799;28;20051;-80
2022/08/03 08:06:18;;;;;;;10.73;2.00;;;;;;;29.43;42.83;101347.09;4978456;28;20117;-80
2022/08/03 08:08:43;;;;;;;10.63;1.90;;;;;;;29.73;41.52;101339.69;4976210;28;20481;-80
2022/08/03 08:11:09;;;;;;;5.28;1.60;;;;;;;30.02;41.96;101351.66;4989186;28;20065;-81
2022/08/03 08:13:36;;;;;;;5.68;1.92;;;;;;;30.31;41.13;101352.63;4985759;28;20097;-80
2022/08/03 08:16:02;;;;;;;7.95;1.90;;;;;;;30.60;40.53;101351.63;4987205;28;20038;-81
2022/08/03 08:18:30;;;;;;;9.15;1.92;;;;;;;30.72;39.79;101352.78;4977796;28;20027;-80
2022/08/03 08:20:55;;;;;;;8.70;2.05;;;;;;;30.38;39.73;101354.38;4988569;28;20366;-81
2022/08/03 08:23:24;;;;;;;6.25;1.60;;;;;;;30.53;40.42;101351.59;4983899;28;20113;-81
2022/08/03 08:25:51;;;;;;;6.32;1.95;;;;;;;31.01;39.17;101354.53;4974768;28;20026;-80
2022/08/03 08:28:22;;;;;;;8.23;1.90;;;;;;;31.50;39.51;101356.38;4979633;28;20077;-81
2022/08/03 08:30:48;;;;;;;5.50;1.98;;;;;;;31.85;38.44;101342.59;4988291;28;20084;-81
2022/08/03 08:33:13;;;;;;;7.68;1.70;;;;;;;32.40;36.55;101343.41;4981828;28;20018;-81
2022/08/03 08:35:39;;;;;;;8.73;1.77;;;;;;;33.00;36.00;101343.44;4980984;28;20033;-80
2022/08/03 08:38:04;;;;;;;7.57;1.75;;;;;;;33.66;34.79;101346.91;4987138;28;20431;-80
2022/08/03 08:40:30;;;;;;;9.80;2.28;;;;;;;33.95;34.01;101342.75;4986301;28;20029;-83
2022/08/03 08:42:55;;;;;;;7.10;1.95;;;;;;;34.19;33.09;101345.81;4977089;28;20046;-81
2022/08/03 08:45:20;;;;;;;7.13;1.65;;;;;;;34.74;31.88;101345.22;4990701;28;20038;-80
2022/08/03 08:47:48;;;;;;;6.93;1.90;;;;;;;34.77;31.27;101345.63;5003187;28;20029;-80
2022/08/03 08:50:17;;;;;;;6.60;1.85;;;;;;;34.63;31.59;101344.91;5007623;28;20018;-81
2022/08/03 08:52:46;;;;;;;9.00;2.17;;;;;;;34.81;33.50;101351.56;4992798;28;20040;-81
2022/08/03 08:55:18;;;;;;;8.77;2.38;;;;;;;35.14;30.63;101349.34;4997334;28;20033;-82
2022/08/03 08:57:54;;;;;;;8.13;1.85;;;;;;;35.00;30.93;101356.09;4994507;28;20029;-82
2022/08/03 09:00:20;;;;;;;6.88;1.67;;;;;;;35.29;30.92;101343.47;4993402;28;20034;-82
2022/08/03 09:02:46;;;;;;;5.45;1.63;;;;;;;36.01;29.38;101340.91;4980991;28;20705;-83
2022/08/03 09:05:17;;;;;;;9.05;1.70;;;;;;;36.59;29.96;101343.03;4990795;28;20042;-83
2022/08/03 09:07:48;;;;;;;5.15;1.33;;;;;;;36.76;28.32;101339.56;4980632;28;20038;-83
2022/08/03 09:10:20;;;;;;;8.18;2.25;;;;;;;36.62;27.88;101350.00;4978433;28;20030;-82
2022/08/03 09:12:49;;;;;;;8.35;1.92;;;;;;;36.28;27.73;101346.06;4981058;28;20444;-82
2022/08/03 09:15:25;;;;;;;9.30;1.90;;;;;;;36.77;29.66;101349.56;4988504;28;20241;-82
2022/08/03 09:17:53;;;;;;;6.60;1.70;;;;;;;37.31;26.35;101345.59;4980083;28;20050;-81
2022/08/03 09:20:20;;;;;;;5.90;1.90;;;;;;;37.63;26.87;101342.44;4988041;28;20069;-81
2022/08/03 09:22:56;;;;;;;8.88;2.05;;;;;;;37.91;26.84;101344.41;4988010;28;20026;-81
2022/08/03 09:25:36;;;;;;;8.82;2.00;;;;;;;37.90;27.17;101342.72;4976476;28;20030;-81
2022/08/03 09:28:06;;;;;;;7.97;2.08;;;;;;;38.12;26.21;101351.19;4988354;28;20117;-81
2022/08/03 09:30:32;;;;;;;8.70;2.08;;;;;;;38.62;26.47;101356.00;4980759;28;20488;-81
2022/08/03 09:33:06;;;;;;;8.70;1.55;;;;;;;39.19;25.50;101346.66;4979623;28;20014;-81
2022/08/03 09:35:32;;;;;;;8.98;2.05;;;;;;;39.73;23.85;101347.69;4979335;28;20030;-80
2022/08/03 09:38:10;;;;;;;8.35;1.85;;;;;;;40.13;24.59;101348.44;4972122;28;20038;-81
2022/08/03 09:40:36;;;;;;;8.70;1.73;;;;;;;40.21;22.67;101346.00;4976723;28;20507;-80
2022/08/03 09:43:02;;;;;;;6.47;1.75;;;;;;;40.31;23.62;101350.88;4983842;28;21657;-79
2022/08/03 09:45:28;;;;;;;11.30;2.17;;;;;;;40.41;23.04;101339.78;4985666;28;20030;-80
2022/08/03 09:47:54;;;;;;;10.85;2.17;;;;;;;40.45;23.07;101351.28;4989616;28;20033;-80
2022/08/03 09:50:19;;;;;;;8.75;2.17;;;;;;;40.51;22.85;101350.19;4979066;28;20030;-80
2022/08/03 09:52:48;;;;;;;12.80;2.28;;;;;;;40.83;22.33;101348.25;4971620;28;20027;-79
2022/08/03 09:55:13;;;;;;;10.70;2.38;;;;;;;40.50;22.21;101351.31;4974254;28;20482;-81
2022/08/03 09:57:40;;;;;;;11.05;2.10;;;;;;;40.48;22.25;101347.94;4969104;28;20339;-81
2022/08/03 10:00:11;;;;;;;10.20;1.95;;;;;;;40.26;22.91;101345.25;4969372;28;20077;-81
2022/08/03 10:02:37;;;;;;;9.75;2.30;;;;;;;40.46;22.58;101344.56;4977435;28;20074;-81
2022/08/03 10:05:04;;;;;;;8.60;2.20;;;;;;;40.83;21.28;101348.25;4971173;28;20539;-81
2022/08/03 10:07:41;;;;;;;9.85;2.53;;;;;;;41.46;21.77;101350.38;4971815;28;20053;-80
2022/08/03 10:10:06;;;;;;;8.98;2.15;;;;;;;41.99;20.68;101348.34;4981357;28;20026;-81
2022/08/03 10:12:33;;;;;;;10.55;2.22;;;;;;;42.16;19.95;101348.09;4982723;28;20053;-81
2022/08/03 10:14:58;;;;;;;10.88;2.42;;;;;;;42.42;19.47;101347.03;4980541;28;20114;-81
2022/08/03 10:17:23;;;;;;;9.52;1.92;;;;;;;42.57;20.76;101345.38;4983153;28;20466;-81
2022/08/03 10:19:48;;;;;;;10.38;2.38;;;;;;;42.85;19.57;101346.75;4983366;28;20023;-82
2022/08/03 10:22:22;;;;;;;7.63;2.13;;;;;;;42.92;19.87;101348.16;4971127;28;20025;-81
2022/08/03 10:25:03;;;;;;;10.15;2.50;;;;;;;42.73;20.26;101347.91;4976523;28;20297;-82
2022/08/03 10:27:33;;;;;;;12.47;2.40;;;;;;;43.30;19.79;101331.84;4968828;28;20026;-82
2022/08/03 10:30:06;;;;;;;10.85;2.60;;;;;;;43.72;19.28;101336.16;4974555;28;20058;-81
2022/08/03 10:32:41;;;;;;;11.25;2.63;;;;;;;44.00;19.04;101343.03;4979064;28;20034;-82
2022/08/03 10:35:12;;;;;;;13.00;2.47;;;;;;;44.20;18.77;101336.47;4978035;28;20027;-82
2022/08/03 10:37:44;;;;;;;7.90;2.20;;;;;;;44.46;18.22;101335.16;4987190;28;20030;-81
2022/08/03 10:40:18;;;;;;;10.45;2.17;;;;;;;44.69;18.17;101327.09;4983656;28;20038;-81
2022/08/03 10:42:45;;;;;;;9.23;2.70;;;;;;;45.04;17.09;101325.09;4978959;28;20061;-82
2022/08/03 10:45:25;;;;;;;8.60;2.20;;;;;;;44.61;18.52;101316.50;4974242;28;20066;-80
2022/08/03 10:47:52;;;;;;;8.15;2.13;;;;;;;44.16;17.92;101318.53;4983085;28;20121;-81
2022/08/03 10:50:21;;;;;;;9.27;1.98;;;;;;;44.19;18.21;101324.41;4982345;28;20058;-81
2022/08/03 10:53:05;;;;;;;7.53;1.90;;;;;;;44.38;17.66;101316.13;4971928;28;20027;-81
2022/08/03 10:58:37;;;;;;;10.40;2.80;;;;;;;44.54;19.00;101307.59;4969900;28;20046;-81
2022/08/03 11:01:09;;;;;;;9.80;2.08;;;;;;;45.15;17.75;101301.34;4968922;28;20046;-81
2022/08/03 11:03:53;;;;;;;10.52;2.42;;;;;;;45.90;17.58;101295.91;4981052;28;20632;-81
2022/08/03 11:06:24;;;;;;;9.35;1.92;;;;;;;45.85;16.31;101293.16;4976845;28;20042;-81
2022/08/03 11:09:09;;;;;;;6.97;1.55;;;;;;;46.83;17.52;101296.03;4977690;28;20508;-81
2022/08/03 11:11:36;;;;;;;7.28;1.95;;;;;;;46.93;16.08;101295.00;4976914;28;20551;-81
2022/08/03 11:14:03;;;;;;;9.32;2.38;;;;;;;46.84;15.42;101296.84;4973141;28;20670;-81
2022/08/03 11:16:34;;;;;;;5.68;1.67;;;;;;;46.98;15.17;101292.09;4979855;28;20042;-81
2022/08/03 11:19:02;;;;;;;3.55;1.30;;;;;;;46.38;15.42;101298.50;4989966;28;20045;-81
2022/08/03 11:21:52;;;;;;;6.68;1.60;;;;;;;46.29;16.64;101296.72;4971524;28;20123;-81
2022/08/03 11:24:36;;;;;;;5.85;1.50;;;;;;;46.71;16.78;101292.06;4976761;28;20073;-80
2022/08/03 11:27:13;;;;;;;8.10;1.60;;;;;;;47.31;16.21;101290.00;4988235;28;20049;-80
2022/08/03 11:30:04;;;;;;;6.45;1.58;;;;;;;47.59;15.88;101287.97;4985761;28;20030;-81
2022/08/03 11:32:36;;;;;;;6.57;2.17;;;;;;;47.31;15.77;101283.53;4969143;28;20023;-81
2022/08/03 11:35:11;;;;;;;6.85;1.98;;;;;;;48.03;15.88;101288.38;4978224;28;20515;-81
2022/08/03 11:37:56;;;;;;;7.97;1.60;;;;;;;48.41;15.20;101293.69;4981003;28;20035;-81